Time;durP1;ratioP1;P1;durP2;ratioP2;P2;SDS_P1;SDS_P2;PMS_P1;PMS_P2;Temp;Humidity;BMP_temperature;BMP_pressure;BME280_temperature;BME280_humidity;BME280_pressure;Samples;Min_cycle;Max_cycle;Signal;HPM_P1;HPM_P2
2021/08/04 04:49:02;;;;;;;21.52;7.47;;;;;;;25.84;48.33;98734.34;1649650;85;21065;-60
2021/08/04 04:51:30;;;;;;;14.25;7.12;;;;;;;26.51;45.93;98732.53;1651804;86;21006;-63
2021/08/04 04:53:58;;;;;;;25.30;7.60;;;;;;;26.82;45.35;98741.30;1645618;86;21069;-63
2021/08/04 04:56:27;;;;;;;19.37;7.15;;;;;;;27.19;44.25;98747.23;1644357;87;21593;-61
2021/08/04 04:58:55;;;;;;;15.20;6.90;;;;;;;27.40;43.62;98745.44;1644460;87;21069;-61
2021/08/04 05:01:23;;;;;;;17.82;7.33;;;;;;;26.96;43.55;98751.98;1644149;86;21098;-59
2021/08/04 05:03:52;;;;;;;17.10;7.17;;;;;;;26.20;45.39;98760.38;1644503;87;21029;-60
2021/08/04 05:06:20;;;;;;;19.32;7.60;;;;;;;25.39;47.34;98772.72;1644269;87;21155;-60
2021/08/04 05:08:48;;;;;;;16.37;7.65;;;;;;;24.68;49.56;98780.50;1661990;84;21044;-62
2021/08/04 05:11:16;;;;;;;16.62;7.60;;;;;;;24.10;51.67;98778.41;1679074;84;21049;-59
2021/08/04 05:13:44;;;;;;;17.00;7.35;;;;;;;23.68;53.52;98793.67;1672750;86;21014;-62
2021/08/04 05:16:12;;;;;;;19.02;7.40;;;;;;;23.26;55.46;98810.17;1668323;86;21017;-64
2021/08/04 05:18:40;;;;;;;21.20;8.15;;;;;;;22.87;57.31;98815.83;1671493;86;21384;-58
2021/08/04 05:21:08;;;;;;;18.48;7.90;;;;;;;22.58;59.22;98817.25;1672692;84;21011;-57
2021/08/04 05:23:36;;;;;;;19.23;7.03;;;;;;;22.29;61.23;98805.77;1673158;84;21023;-59
2021/08/04 05:26:04;;;;;;;14.95;7.05;;;;;;;21.93;63.51;98808.80;1672558;86;21099;-56
2021/08/04 05:28:32;;;;;;;22.27;9.25;;;;;;;21.66;64.35;98802.05;1672375;85;21050;-59
2021/08/04 05:31:00;;;;;;;15.88;8.30;;;;;;;21.39;65.96;98800.38;1673183;84;21007;-61
2021/08/04 05:33:28;;;;;;;16.37;8.60;;;;;;;21.06;68.49;98800.05;1644410;87;21018;-60
2021/08/04 05:35:56;;;;;;;18.87;7.75;;;;;;;20.83;70.24;98805.53;1675432;86;21022;-55
2021/08/04 05:38:24;;;;;;;19.32;9.00;;;;;;;20.73;70.98;98802.91;1675811;86;21053;-52
2021/08/04 05:40:52;;;;;;;20.00;8.50;;;;;;;20.78;71.84;98804.77;1673247;84;21038;-59
2021/08/04 05:43:20;;;;;;;18.17;8.40;;;;;;;20.87;71.83;98799.91;1673171;86;21461;-54
2021/08/04 05:45:48;;;;;;;15.75;8.20;;;;;;;21.04;72.21;98783.97;1673193;86;21098;-56
2021/08/04 05:48:16;;;;;;;14.28;7.55;;;;;;;21.29;71.22;98783.84;1669869;84;21157;-56
2021/08/04 05:50:43;;;;;;;17.73;7.42;;;;;;;21.51;70.50;98773.23;1651936;85;21011;-56
2021/08/04 05:53:11;;;;;;;15.13;7.17;;;;;;;21.62;69.42;98768.02;1673860;85;21082;-56
2021/08/04 05:55:40;;;;;;;18.12;7.83;;;;;;;21.68;68.61;98773.08;1680499;85;21564;-67
2021/08/04 05:58:08;;;;;;;14.30;7.70;;;;;;;21.70;68.91;98777.61;1680493;85;21062;-61
2021/08/04 06:00:36;;;;;;;14.75;8.03;;;;;;;21.61;68.23;98781.17;1650798;85;20995;-61
2021/08/04 06:03:05;;;;;;;14.58;8.13;;;;;;;21.57;69.23;98789.00;1642086;85;21075;-61
2021/08/04 06:05:33;;;;;;;25.08;8.43;;;;;;;21.54;69.95;98792.23;1652925;85;21008;-63
2021/08/04 06:08:01;;;;;;;21.60;8.53;;;;;;;21.47;69.59;98783.16;1653400;85;21088;-58
2021/08/04 06:10:30;;;;;;;17.95;7.37;;;;;;;21.70;69.28;98783.52;1657580;85;21054;-64
2021/08/04 06:13:00;;;;;;;17.45;7.45;;;;;;;22.04;67.00;98790.17;1658749;85;21085;-61
2021/08/04 06:15:28;;;;;;;16.87;7.70;;;;;;;22.10;67.03;98788.27;1668033;85;21006;-64
2021/08/04 06:17:57;;;;;;;16.17;7.03;;;;;;;22.07;66.49;98778.84;1667252;85;21045;-62
2021/08/04 06:20:28;;;;;;;17.23;7.10;;;;;;;22.23;66.05;98774.95;1650748;85;21548;-61
2021/08/04 06:22:56;;;;;;;11.83;6.15;;;;;;;22.45;65.16;98779.00;1660826;85;21014;-61
2021/08/04 06:25:25;;;;;;;18.12;7.08;;;;;;;22.78;63.90;98774.56;1668014;85;21454;-60
2021/08/04 06:27:54;;;;;;;17.02;6.40;;;;;;;23.45;62.11;98773.05;1639686;85;21429;-59
2021/08/04 06:30:24;;;;;;;19.62;7.87;;;;;;;24.19;59.02;98771.21;1668923;85;21030;-62
2021/08/04 06:32:54;;;;;;;15.18;6.30;;;;;;;24.77;56.63;98777.33;1649827;85;20999;-67
2021/08/04 06:35:23;;;;;;;10.55;6.08;;;;;;;25.25;55.80;98778.19;1669042;85;21468;-64
2021/08/04 06:37:52;;;;;;;13.35;6.15;;;;;;;25.64;53.39;98777.50;1636968;85;21011;-66
2021/08/04 06:40:22;;;;;;;14.25;5.85;;;;;;;25.78;52.67;98764.50;1667731;85;20990;-63
2021/08/04 06:42:50;;;;;;;16.42;6.03;;;;;;;25.78;51.59;98757.75;1665451;85;21584;-66
2021/08/04 06:45:18;;;;;;;18.27;6.90;;;;;;;25.55;52.49;98761.00;1668517;85;20997;-63
2021/08/04 06:47:47;;;;;;;14.30;6.03;;;;;;;25.27;52.68;98750.89;1665554;85;21107;-66
2021/08/04 06:50:18;;;;;;;16.02;6.00;;;;;;;25.05;53.21;98751.13;1630997;85;21038;-60
2021/08/04 06:52:51;;;;;;;15.85;6.20;;;;;;;24.96;53.35;98750.80;1645800;87;21090;-59
2021/08/04 06:55:19;;;;;;;15.90;5.95;;;;;;;24.92;53.07;98743.06;1608280;87;21029;-59
2021/08/04 06:57:47;;;;;;;29.72;7.58;;;;;;;24.90;54.03;98750.11;1620910;87;21028;-53
2021/08/04 07:00:15;;;;;;;22.20;7.53;;;;;;;25.02;54.10;98759.02;1619992;88;21032;-51
2021/08/04 07:02:43;;;;;;;15.35;6.50;;;;;;;25.04;55.83;98757.59;1629189;87;21018;-61
2021/08/04 07:05:11;;;;;;;16.50;6.60;;;;;;;25.07;56.54;98756.23;1642332;85;21114;-54
2021/08/04 07:07:42;;;;;;;16.37;6.42;;;;;;;25.00;55.54;98764.69;1634713;85;21089;-53
2021/08/04 07:10:10;;;;;;;;;;;;;;;24.86;55.22;98769.33;1671014;85;21505;-51
2021/08/04 07:12:39;;;;;;;15.83;6.50;;;;;;;24.63;55.52;98772.53;1646275;87;20148;-53
2021/08/04 07:15:08;;;;;;;17.37;5.95;;;;;;;24.35;56.99;98765.81;1646125;87;21098;-58
2021/08/04 07:17:48;;;;;;;11.43;5.55;;;;;;;24.18;58.09;98764.23;1638460;85;20990;-61
2021/08/04 07:20:19;;;;;;;10.08;5.42;;;;;;;24.07;58.69;98756.90;1623844;88;21055;-55
2021/08/04 07:22:47;;;;;;;11.70;5.20;;;;;;;24.05;58.59;98763.14;1630693;87;21062;-56
2021/08/04 07:25:15;;;;;;;10.00;4.75;;;;;;;24.14;58.55;98769.96;1619810;89;21065;-57
2021/08/04 07:27:45;;;;;;;11.15;5.35;;;;;;;24.31;57.99;98761.28;1617319;89;21184;-53
2021/08/04 07:30:13;;;;;;;10.03;4.87;;;;;;;24.48;57.01;98764.75;1608594;87;21077;-52
2021/08/04 07:32:42;;;;;;;10.03;5.37;;;;;;;24.58;55.74;98763.20;1644146;87;21141;-57
2021/08/04 07:35:10;;;;;;;8.63;4.45;;;;;;;24.61;55.36;98760.71;1622672;87;21014;-55
2021/08/04 07:37:39;;;;;;;12.10;5.05;;;;;;;24.63;55.09;98763.09;1619937;88;21520;-60
2021/08/04 07:40:09;;;;;;;10.95;5.12;;;;;;;24.64;54.99;98750.66;1619733;88;21074;-58
2021/08/04 07:42:36;;;;;;;12.45;4.92;;;;;;;24.61;54.44;98758.02;1629308;85;21477;-64
2021/08/04 07:45:06;;;;;;;11.78;4.95;;;;;;;24.61;54.44;98751.28;1623470;87;21042;-56
2021/08/04 07:47:36;;;;;;;14.60;5.28;;;;;;;24.83;54.52;98757.80;1617737;88;21093;-57
2021/08/04 07:50:07;;;;;;;15.93;6.40;;;;;;;25.01;53.43;98751.48;1594471;88;21588;-62
2021/08/04 07:52:35;;;;;;;9.40;4.55;;;;;;;25.08;52.47;98755.92;1591490;89;20998;-60
2021/08/04 07:55:06;;;;;;;8.88;4.70;;;;;;;25.12;52.69;98758.81;1613228;88;21544;-53
2021/08/04 07:57:34;;;;;;;;;;;;;;;25.14;52.34;98768.18;1622565;89;21070;-54
2021/08/04 08:00:02;;;;;;;10.28;5.47;;;;;;;25.31;52.25;98758.08;1620320;87;20186;-60
2021/08/04 08:02:32;;;;;;;10.08;5.10;;;;;;;25.43;52.71;98747.52;1618593;89;21041;-58
2021/08/04 08:05:00;;;;;;;9.63;4.80;;;;;;;25.53;51.31;98756.48;1622051;86;21054;-57
2021/08/04 08:07:28;;;;;;;13.05;5.35;;;;;;;25.49;50.16;98746.84;1640749;85;21099;-56
2021/08/04 08:09:57;;;;;;;14.95;5.17;;;;;;;25.37;50.74;98750.09;1593587;88;21022;-57
2021/08/04 08:12:27;;;;;;;9.95;4.92;;;;;;;25.30;51.66;98747.59;1622702;88;21090;-57
2021/08/04 08:14:56;;;;;;;16.57;5.35;;;;;;;25.25;51.10;98752.56;1622726;88;21509;-56
2021/08/04 08:17:24;;;;;;;12.13;4.58;;;;;;;25.21;51.32;98746.73;1622406;86;21097;-57
2021/08/04 08:19:54;;;;;;;11.08;5.95;;;;;;;25.24;51.39;98745.58;1623134;87;21002;-63
2021/08/04 08:22:24;;;;;;;10.65;5.33;;;;;;;25.35;51.82;98743.43;1620441;88;21081;-59
2021/08/04 08:24:54;;;;;;;8.85;4.90;;;;;;;25.49;51.77;98747.39;1619918;89;21050;-63
2021/08/04 08:27:21;;;;;;;11.08;5.87;;;;;;;25.59;51.46;98741.75;1620063;89;21077;-56
2021/08/04 08:29:49;;;;;;;8.63;5.60;;;;;;;25.59;51.00;98726.34;1600906;88;21002;-58
2021/08/04 08:32:18;;;;;;;12.45;5.20;;;;;;;25.55;51.39;98726.71;1645252;87;21083;-60
2021/08/04 08:34:46;;;;;;;9.93;5.40;;;;;;;25.53;51.64;98727.59;1673885;86;21046;-57
2021/08/04 08:37:15;;;;;;;14.28;5.87;;;;;;;25.44;52.39;98725.38;1623319;87;21579;-57
2021/08/04 08:39:44;;;;;;;11.28;5.72;;;;;;;25.35;53.23;98728.59;1637428;87;21034;-57
2021/08/04 08:42:14;;;;;;;10.23;5.45;;;;;;;25.27;54.29;98722.02;1635371;86;21543;-57
2021/08/04 08:44:42;;;;;;;8.53;4.90;;;;;;;25.16;54.63;98724.16;1633631;87;21049;-61
2021/08/04 08:47:11;;;;;;;12.88;4.95;;;;;;;25.00;54.32;98717.50;1635653;87;21066;-56
2021/08/04 08:49:41;;;;;;;9.03;5.13;;;;;;;24.80;55.19;98727.42;1633935;86;21090;-51
2021/08/04 08:52:08;;;;;;;10.88;5.47;;;;;;;24.61;55.85;98718.94;1615757;87;21525;-54
2021/08/04 08:54:39;;;;;;;9.95;5.33;;;;;;;24.49;56.40;98720.02;1627008;86;21509;-58
2021/08/04 08:57:13;;;;;;;9.73;4.97;;;;;;;24.47;56.82;98713.32;1628275;87;21521;-57
2021/08/04 08:59:42;;;;;;;7.55;5.25;;;;;;;24.47;56.93;98714.11;1630960;87;21548;-54
2021/08/04 09:02:12;;;;;;;11.38;5.12;;;;;;;24.49;57.40;98711.14;1638842;87;21030;-55
2021/08/04 09:04:40;;;;;;;11.18;5.22;;;;;;;24.55;57.29;98709.93;1641662;87;21513;-56
2021/08/04 09:07:08;;;;;;;12.82;5.60;;;;;;;24.60;57.25;98715.17;1630135;86;21018;-55
2021/08/04 09:09:36;;;;;;;9.48;5.50;;;;;;;24.64;57.34;98712.92;1640992;87;21080;-57
2021/08/04 09:12:16;;;;;;;12.43;5.03;;;;;;;24.73;56.20;98710.33;1635657;87;21090;-62
2021/08/04 09:14:42;;;;;;;12.55;5.40;;;;;;;24.86;56.02;98701.39;1621121;86;21082;-61
2021/08/04 09:17:15;;;;;;;11.65;4.87;;;;;;;25.12;54.60;98692.73;1615351;89;21057;-60
2021/08/04 09:19:48;;;;;;;9.55;5.22;;;;;;;25.45;53.27;98692.44;1623519;86;21098;-54
2021/08/04 09:22:26;;;;;;;10.63;4.67;;;;;;;25.68;52.06;98688.59;1625819;88;21118;-60
2021/08/04 09:25:00;;;;;;;11.15;5.25;;;;;;;25.83;51.54;98690.91;1626524;88;21094;-59
2021/08/04 09:27:42;;;;;;;8.70;5.30;;;;;;;25.94;50.46;98689.53;1626375;88;21047;-61
2021/08/04 09:30:12;;;;;;;12.63;5.17;;;;;;;26.05;50.28;98687.34;1625561;86;21536;-60
2021/08/04 09:32:40;;;;;;;;;;;;;;;26.19;50.18;98677.75;1628889;88;21054;-60
2021/08/04 09:35:20;;;;;;;13.45;5.85;;;;;;;26.33;50.33;98684.39;1618163;87;20141;-62
2021/08/04 09:37:48;;;;;;;14.15;5.42;;;;;;;26.44;50.20;98686.50;1614784;89;21053;-59
2021/08/04 09:40:21;;;;;;;10.60;4.95;;;;;;;26.47;49.79;98691.81;1615517;88;20997;-63
2021/08/04 09:42:54;;;;;;;10.45;5.15;;;;;;;26.45;50.41;98686.73;1615607;86;21103;-63
2021/08/04 09:45:43;;;;;;;13.00;5.30;;;;;;;26.38;51.47;98689.09;1615288;88;21559;-58
2021/08/04 09:48:15;;;;;;;9.30;4.85;;;;;;;26.32;51.25;98684.13;1615527;88;21093;-60
2021/08/04 09:50:59;;;;;;;9.90;5.60;;;;;;;26.24;51.63;98679.52;1603308;88;21522;-59
2021/08/04 09:53:32;;;;;;;10.95;5.55;;;;;;;26.19;51.93;98682.59;1626843;88;21036;-60
2021/08/04 09:56:14;;;;;;;7.75;4.75;;;;;;;26.25;51.98;98679.75;1645831;87;21021;-64
2021/08/04 09:58:53;;;;;;;7.92;5.20;;;;;;;26.40;51.39;98682.01;1654151;87;21113;-61
2021/08/04 10:01:27;;;;;;;11.75;5.33;;;;;;;26.51;50.86;98677.13;1628014;87;21057;-61
2021/08/04 10:04:10;;;;;;;8.13;5.25;;;;;;;26.58;50.72;98677.45;1628334;87;21093;-60
2021/08/04 10:06:40;;;;;;;8.43;5.47;;;;;;;26.64;50.56;98673.47;1637269;87;21065;-64
2021/08/04 10:09:16;;;;;;;12.10;5.42;;;;;;;26.67;50.88;98668.80;1627736;88;21019;-56
2021/08/04 10:11:49;;;;;;;8.55;5.30;;;;;;;26.69;51.48;98667.91;1637204;87;21044;-61
2021/08/04 10:14:19;;;;;;;12.15;5.40;;;;;;;26.63;51.27;98669.98;1627530;87;21026;-56
2021/08/04 10:16:50;;;;;;;8.60;5.15;;;;;;;26.54;51.07;98667.02;1638973;87;21002;-62
2021/08/04 10:19:20;;;;;;;10.90;5.45;;;;;;;26.47;51.22;98664.23;1644868;87;20998;-60
2021/08/04 10:21:50;;;;;;;9.65;5.22;;;;;;;26.43;51.33;98668.67;1653987;87;21037;-60
2021/08/04 10:24:18;;;;;;;;;;;;;;;26.43;51.01;98669.23;1614659;88;21050;-60
2021/08/04 10:26:45;;;;;;;9.80;4.92;;;;;;;26.46;50.80;98664.56;1627451;88;20115;-61
2021/08/04 10:29:15;;;;;;;10.23;5.30;;;;;;;26.46;50.58;98670.76;1629155;88;21596;-68
2021/08/04 10:31:43;;;;;;;7.83;4.70;;;;;;;26.56;50.01;98664.25;1641439;87;20964;-56
2021/08/04 10:34:11;;;;;;;8.83;4.60;;;;;;;26.72;49.67;98659.14;1627948;87;21071;-62
2021/08/04 10:36:42;;;;;;;9.15;5.05;;;;;;;26.83;48.79;98655.00;1627377;88;21150;-62
2021/08/04 10:39:15;;;;;;;9.75;4.75;;;;;;;26.89;48.01;98657.78;1628116;88;21028;-61
2021/08/04 10:42:06;;;;;;;9.00;4.45;;;;;;;26.90;47.80;98648.58;1629177;87;20997;-65
2021/08/04 10:44:36;;;;;;;10.68;5.17;;;;;;;26.94;48.05;98646.02;1627750;87;21047;-65
2021/08/04 10:47:06;;;;;;;7.65;4.83;;;;;;;27.10;47.70;98640.92;1627844;88;21577;-65
2021/08/04 10:49:35;;;;;;;;;;;;;;;27.23;47.23;98633.96;1632182;87;21050;-66
2021/08/04 10:52:06;;;;;;;9.73;4.90;;;;;;;27.35;46.98;98630.58;1644031;87;20177;-63
2021/08/04 10:54:34;;;;;;;9.93;4.72;;;;;;;27.55;46.60;98626.38;1625659;88;21072;-57
2021/08/04 10:57:09;;;;;;;11.43;4.67;;;;;;;27.71;46.53;98626.11;1674685;85;21014;-58
2021/08/04 10:59:40;;;;;;;7.12;4.53;;;;;;;27.74;45.56;98632.77;1684717;85;21531;-66
2021/08/04 11:02:15;;;;;;;6.78;4.30;;;;;;;27.65;45.89;98630.66;1677468;85;20990;-64
2021/08/04 11:04:51;;;;;;;9.90;4.22;;;;;;;27.52;45.43;98633.22;1652234;87;21512;-63
2021/08/04 11:07:20;;;;;;;6.45;4.08;;;;;;;27.42;45.57;98632.25;1652247;85;21057;-59
2021/08/04 11:09:53;;;;;;;;;;;;;;;27.28;45.29;98632.20;1687467;85;21006;-64
2021/08/04 11:12:41;;;;;;;6.80;4.12;;;;;;;27.18;46.10;98637.39;1683268;85;20133;-65
2021/08/04 11:15:29;;;;;;;7.35;4.42;;;;;;;27.17;46.13;98636.61;1637511;85;21053;-56
2021/08/04 11:18:07;;;;;;;7.17;4.08;;;;;;;27.18;46.21;98634.69;1647901;85;21010;-58
2021/08/04 11:21:08;;;;;;;6.05;4.42;;;;;;;27.07;46.48;98630.73;1629103;85;21087;-56
2021/08/04 11:23:49;;;;;;;8.00;4.00;;;;;;;26.92;47.10;98628.76;1636664;88;21051;-57
2021/08/04 11:26:31;;;;;;;9.68;4.45;;;;;;;26.74;47.72;98619.88;1650433;87;20998;-59
2021/08/04 11:29:06;;;;;;;8.00;4.40;;;;;;;26.69;48.41;98614.63;1664890;85;21014;-50
2021/08/04 11:31:35;;;;;;;14.23;4.90;;;;;;;26.62;48.35;98615.67;1676616;85;21050;-56
2021/08/04 11:34:30;;;;;;;9.78;5.22;;;;;;;26.51;49.33;98614.97;1641857;85;21040;-55
2021/08/04 11:37:01;;;;;;;10.45;4.95;;;;;;;26.27;50.07;98628.36;1646359;85;20993;-57
2021/08/04 11:39:30;;;;;;;11.00;5.28;;;;;;;26.00;50.76;98629.98;1635404;85;21048;-57
2021/08/04 11:41:59;;;;;;;11.75;5.25;;;;;;;25.87;51.54;98618.99;1646737;85;20993;-54
2021/08/04 11:44:29;;;;;;;8.58;5.03;;;;;;;25.80;52.47;98618.62;1639179;85;21097;-54
2021/08/04 11:47:09;;;;;;;8.68;5.17;;;;;;;25.82;52.89;98612.94;1612120;87;21013;-54
2021/08/04 11:49:39;;;;;;;11.68;5.30;;;;;;;25.97;52.11;98608.43;1635774;87;21044;-51
2021/08/04 11:52:18;;;;;;;12.23;4.90;;;;;;;26.32;50.59;98595.75;1649756;86;21106;-56
2021/08/04 11:54:58;;;;;;;9.20;4.35;;;;;;;26.69;50.18;98592.22;1662178;86;21487;-61
2021/08/04 11:57:35;;;;;;;7.10;4.28;;;;;;;27.01;49.59;98596.27;1651695;86;21073;-59
2021/08/04 12:00:09;;;;;;;8.95;4.30;;;;;;;27.15;49.28;98590.16;1640598;87;21634;-57
2021/08/04 12:02:41;;;;;;;12.15;4.42;;;;;;;27.12;48.87;98581.31;1639396;87;22020;-55
2021/08/04 12:05:11;;;;;;;7.17;4.22;;;;;;;27.05;49.19;98569.38;1640363;87;21086;-62
2021/08/04 12:07:43;;;;;;;10.03;4.47;;;;;;;27.04;49.19;98565.09;1640976;87;21574;-55
2021/08/04 12:10:17;;;;;;;8.35;4.30;;;;;;;27.11;48.51;98564.86;1642433;86;21051;-56
2021/08/04 12:12:50;;;;;;;8.98;4.00;;;;;;;27.20;48.40;98560.78;1640712;87;21557;-57
2021/08/04 12:15:25;;;;;;;6.78;4.37;;;;;;;27.29;48.27;98560.73;1640663;87;21019;-57
2021/08/04 12:18:03;;;;;;;10.58;4.62;;;;;;;27.28;47.90;98558.59;1647052;86;21086;-59
2021/08/04 12:20:39;;;;;;;8.80;4.00;;;;;;;27.30;47.90;98557.72;1640692;86;21088;-59
2021/08/04 12:23:12;;;;;;;10.13;4.87;;;;;;;27.30;47.94;98552.84;1613460;87;21072;-59
2021/08/04 12:25:43;;;;;;;7.47;4.37;;;;;;;27.30;48.02;98551.48;1640725;86;21092;-56
2021/08/04 12:28:12;;;;;;;5.40;4.08;;;;;;;27.29;48.31;98553.97;1640635;87;21064;-58
2021/08/04 12:30:43;;;;;;;8.80;4.80;;;;;;;27.34;48.26;98559.98;1640801;87;21084;-59
2021/08/04 12:33:19;;;;;;;9.95;4.78;;;;;;;27.40;47.97;98553.28;1645646;86;21000;-58
2021/08/04 12:36:04;;;;;;;8.18;4.40;;;;;;;27.44;47.49;98546.66;1654771;86;21011;-58
2021/08/04 12:38:39;;;;;;;6.90;4.10;;;;;;;27.39;47.80;98538.72;1652694;86;22339;-59
2021/08/04 12:41:08;;;;;;;7.55;4.37;;;;;;;27.30;47.92;98529.84;1654864;86;21006;-57
2021/08/04 12:43:38;;;;;;;6.57;3.83;;;;;;;27.18;47.90;98525.13;1652571;86;20991;-60
2021/08/04 12:46:08;;;;;;;6.90;4.00;;;;;;;26.98;48.06;98518.50;1644511;86;21571;-58
2021/08/04 12:48:39;;;;;;;5.83;4.10;;;;;;;26.82;48.56;98530.95;1655851;86;21481;-56
2021/08/04 12:51:23;;;;;;;4.97;3.60;;;;;;;26.69;48.88;98522.72;1660152;85;21537;-56
2021/08/04 12:54:04;;;;;;;4.60;3.58;;;;;;;26.61;49.22;98520.02;1667521;85;21022;-55
2021/08/04 12:56:40;;;;;;;5.00;3.80;;;;;;;26.59;49.63;98517.64;1668439;85;21101;-58
2021/08/04 12:59:14;;;;;;;7.97;3.70;;;;;;;26.58;49.23;98509.86;1639345;85;21111;-58
2021/08/04 13:01:45;;;;;;;5.65;3.72;;;;;;;26.56;49.69;98503.99;1665260;85;21073;-57
2021/08/04 13:04:25;;;;;;;7.12;3.70;;;;;;;26.60;50.13;98500.86;1664789;85;21050;-59
2021/08/04 13:07:02;;;;;;;6.55;3.90;;;;;;;26.68;49.82;98494.10;1671089;85;20986;-57
2021/08/04 13:09:52;;;;;;;6.25;3.80;;;;;;;26.71;49.67;98502.11;1668209;85;21007;-60
2021/08/04 13:12:33;;;;;;;8.53;4.28;;;;;;;26.72;50.20;98498.28;1663760;85;21042;-60
2021/08/04 13:15:17;;;;;;;10.13;4.10;;;;;;;26.48;51.22;98488.02;1666954;85;21558;-55
2021/08/04 13:17:55;;;;;;;8.70;4.55;;;;;;;26.48;51.22;98488.02;1665746;85;21475;-59
2021/08/04 13:20:29;;;;;;;9.80;4.28;;;;;;;26.40;51.78;98496.35;1665784;85;21473;-57
2021/08/04 13:23:14;;;;;;;13.45;4.80;;;;;;;26.39;51.96;98483.95;1660883;85;21438;-60
2021/08/04 13:25:54;;;;;;;8.65;4.62;;;;;;;26.39;51.84;98470.45;1651441;85;21634;-60
2021/08/04 13:28:27;;;;;;;8.83;4.28;;;;;;;26.50;51.97;98468.23;1664651;85;20986;-61
2021/08/04 13:30:58;;;;;;;6.47;4.37;;;;;;;26.71;52.40;98468.31;1640264;85;21090;-58
2021/08/04 13:33:28;;;;;;;8.53;4.22;;;;;;;26.96;51.47;98464.73;1637486;85;21049;-60
2021/08/04 13:36:01;;;;;;;10.68;4.05;;;;;;;27.03;51.51;98460.17;1655574;85;21087;-60
2021/08/04 13:38:29;;;;;;;8.20;4.50;;;;;;;27.08;50.79;98461.94;1667553;85;21581;-60
2021/08/04 13:40:58;;;;;;;10.43;4.42;;;;;;;27.15;51.37;98468.97;1651592;85;21549;-58
2021/08/04 13:43:27;;;;;;;7.10;4.50;;;;;;;27.11;51.93;98465.33;1653223;87;21058;-57
2021/08/04 13:45:56;;;;;;;7.85;4.58;;;;;;;26.89;51.48;98458.23;1679080;85;21083;-57
2021/08/04 13:48:25;;;;;;;8.50;4.30;;;;;;;26.65;52.13;98459.59;1680587;85;21014;-59
2021/08/04 13:50:54;;;;;;;13.18;4.90;;;;;;;26.50;53.12;98454.72;1628803;86;21105;-56
2021/08/04 13:53:24;;;;;;;7.23;4.60;;;;;;;26.45;53.56;98451.63;1642145;86;21532;-59
2021/08/04 13:55:54;;;;;;;;;;;;;;;26.42;53.10;98442.01;1648257;86;21577;-57
2021/08/04 13:58:22;;;;;;;12.00;5.33;;;;;;;26.39;53.72;98441.28;1651199;86;20164;-60
